sensor_id;sensor_type;location;lat;lon;timestamp;pressure;altitude;pressure_sealevel;temperature;humidity
20156;BME280;10238;49.556;10.956;2023-03-16T00:01:13;98858.53;;;-2.27;100.00
20156;BME280;10238;49.556;10.956;2023-03-16T00:04:01;98861.19;;;-2.29;100.00
20156;BME280;10238;49.556;10.956;2023-03-16T00:06:49;98856.13;;;-2.32;100.00
20156;BME280;10238;49.556;10.956;2023-03-16T00:09:38;98867.47;;;-2.33;100.00
20156;BME280;10238;49.556;10.956;2023-03-16T00:12:26;98867.38;;;-2.31;100.00
20156;BME280;10238;49.556;10.956;2023-03-16T00:15:16;98878.75;;;-2.34;100.00
20156;BME280;10238;49.556;10.956;2023-03-16T00:18:04;98869.25;;;-2.35;100.00
20156;BME280;10238;49.556;10.956;2023-03-16T00:20:53;98864.13;;;-2.36;100.00
20156;BME280;10238;49.556;10.956;2023-03-16T00:23:42;98873.66;;;-2.37;100.00
20156;BME280;10238;49.556;10.956;2023-03-16T00:26:30;98873.66;;;-2.37;100.00
20156;BME280;10238;49.556;10.956;2023-03-16T00:29:18;98873.72;;;-2.38;100.00
20156;BME280;10238;49.556;10.956;2023-03-16T00:32:10;98868.59;;;-2.40;100.00
20156;BME280;10238;49.556;10.956;2023-03-16T00:34:58;98860.84;;;-2.41;100.00
20156;BME280;10238;49.556;10.956;2023-03-16T00:37:47;98872.13;;;-2.41;100.00
20156;BME280;10238;49.556;10.956;2023-03-16T00:40:35;98864.25;;;-2.39;100.00
20156;BME280;10238;49.556;10.956;2023-03-16T00:43:23;98869.50;;;-2.41;100.00
20156;BME280;10238;49.556;10.956;2023-03-16T00:46:14;98869.63;;;-2.44;100.00
20156;BME280;10238;49.556;10.956;2023-03-16T00:49:04;98865.34;;;-2.45;100.00
20156;BME280;10238;49.556;10.956;2023-03-16T00:51:52;98860.03;;;-2.42;100.00
20156;BME280;10238;49.556;10.956;2023-03-16T00:54:41;98864.44;;;-2.44;100.00
20156;BME280;10238;49.556;10.956;2023-03-16T00:57:32;98865.28;;;-2.43;100.00
20156;BME280;10238;49.556;10.956;2023-03-16T01:00:20;98860.16;;;-2.45;100.00
20156;BME280;10238;49.556;10.956;2023-03-16T01:03:12;98856.75;;;-2.47;100.00
20156;BME280;10238;49.556;10.956;2023-03-16T01:06:04;98858.59;;;-2.49;100.00
20156;BME280;10238;49.556;10.956;2023-03-16T01:08:53;98855.19;;;-2.51;100.00
20156;BME280;10238;49.556;10.956;2023-03-16T01:11:41;98853.56;;;-2.53;100.00
20156;BME280;10238;49.556;10.956;2023-03-16T01:14:29;98849.31;;;-2.56;100.00
20156;BME280;10238;49.556;10.956;2023-03-16T01:17:18;98855.50;;;-2.58;100.00
20156;BME280;10238;49.556;10.956;2023-03-16T01:20:06;98853.06;;;-2.63;100.00
20156;BME280;10238;49.556;10.956;2023-03-16T01:22:59;98855.78;;;-2.66;100.00
20156;BME280;10238;49.556;10.956;2023-03-16T01:25:47;98850.72;;;-2.69;100.00
20156;BME280;10238;49.556;10.956;2023-03-16T01:28:38;98856.03;;;-2.72;100.00
20156;BME280;10238;49.556;10.956;2023-03-16T01:31:26;98857.00;;;-2.74;100.00
20156;BME280;10238;49.556;10.956;2023-03-16T01:34:15;98853.69;;;-2.78;100.00
20156;BME280;10238;49.556;10.956;2023-03-16T01:37:04;98852.06;;;-2.80;100.00
20156;BME280;10238;49.556;10.956;2023-03-16T01:39:53;98856.56;;;-2.84;100.00
20156;BME280;10238;49.556;10.956;2023-03-16T01:42:44;98854.91;;;-2.86;100.00
20156;BME280;10238;49.556;10.956;2023-03-16T01:49:06;98854.31;;;-2.93;100.00
20156;BME280;10238;49.556;10.956;2023-03-16T01:51:57;98848.31;;;-2.95;100.00
20156;BME280;10238;49.556;10.956;2023-03-16T01:54:48;98846.75;;;-2.99;100.00
20156;BME280;10238;49.556;10.956;2023-03-16T01:57:40;98842.50;;;-3.01;100.00
20156;BME280;10238;49.556;10.956;2023-03-16T02:00:30;98846.97;;;-3.05;100.00
20156;BME280;10238;49.556;10.956;2023-03-16T02:03:20;98851.44;;;-3.08;100.00
20156;BME280;10238;49.556;10.956;2023-03-16T02:06:11;98845.47;;;-3.10;100.00
20156;BME280;10238;49.556;10.956;2023-03-16T02:09:02;98835.25;;;-3.15;100.00
20156;BME280;10238;49.556;10.956;2023-03-16T02:11:51;98833.69;;;-3.19;100.00
20156;BME280;10238;49.556;10.956;2023-03-16T02:14:41;98833.78;;;-3.22;100.00
20156;BME280;10238;49.556;10.956;2023-03-16T02:17:30;98842.59;;;-3.26;100.00
20156;BME280;10238;49.556;10.956;2023-03-16T02:20:27;98849.56;;;-3.26;100.00
20156;BME280;10238;49.556;10.956;2023-03-16T02:23:20;98848.75;;;-3.28;100.00
20156;BME280;10238;49.556;10.956;2023-03-16T02:26:17;98858.34;;;-3.30;100.00
20156;BME280;10238;49.556;10.956;2023-03-16T02:29:19;98853.22;;;-3.32;100.00
20156;BME280;10238;49.556;10.956;2023-03-16T02:32:13;98853.28;;;-3.33;100.00
20156;BME280;10238;49.556;10.956;2023-03-16T02:35:02;98848.97;;;-3.34;100.00
20156;BME280;10238;49.556;10.956;2023-03-16T02:37:50;98858.53;;;-3.35;100.00
20156;BME280;10238;49.556;10.956;2023-03-16T02:40:39;98848.38;;;-3.41;100.00
20156;BME280;10238;49.556;10.956;2023-03-16T02:43:32;98847.63;;;-3.44;100.00
20156;BME280;10238;49.556;10.956;2023-03-16T02:46:24;98844.25;;;-3.46;100.00
20156;BME280;10238;49.556;10.956;2023-03-16T02:49:18;98841.69;;;-3.48;100.00
20156;BME280;10238;49.556;10.956;2023-03-16T02:52:11;98846.94;;;-3.49;100.00
20156;BME280;10238;49.556;10.956;2023-03-16T02:54:58;98845.22;;;-3.49;100.00
20156;BME280;10238;49.556;10.956;2023-03-16T02:57:46;98838.44;;;-3.53;100.00
20156;BME280;10238;49.556;10.956;2023-03-16T03:00:34;98838.44;;;-3.53;100.00
20156;BME280;10238;49.556;10.956;2023-03-16T03:03:22;98841.81;;;-3.51;100.00
20156;BME280;10238;49.556;10.956;2023-03-16T03:06:12;98829.69;;;-3.50;100.00
20156;BME280;10238;49.556;10.956;2023-03-16T03:08:59;98836.50;;;-3.48;100.00
20156;BME280;10238;49.556;10.956;2023-03-16T03:11:47;98831.31;;;-3.48;100.00
20156;BME280;10238;49.556;10.956;2023-03-16T03:14:36;98829.50;;;-3.46;100.00
20156;BME280;10238;49.556;10.956;2023-03-16T03:17:24;98833.03;;;-3.47;100.00
20156;BME280;10238;49.556;10.956;2023-03-16T03:20:15;98839.91;;;-3.46;100.00
20156;BME280;10238;49.556;10.956;2023-03-16T03:23:05;98837.19;;;-3.43;100.00
20156;BME280;10238;49.556;10.956;2023-03-16T03:25:57;98839.78;;;-3.43;100.00
20156;BME280;10238;49.556;10.956;2023-03-16T03:28:45;98842.69;;;-3.29;100.00
20156;BME280;10238;49.556;10.956;2023-03-16T03:31:34;98850.44;;;-3.27;100.00
20156;BME280;10238;49.556;10.956;2023-03-16T03:34:23;98853.28;;;-3.33;100.00
20156;BME280;10238;49.556;10.956;2023-03-16T03:37:12;98862.03;;;-3.36;100.00
20156;BME280;10238;49.556;10.956;2023-03-16T03:40:01;98854.47;;;-3.19;100.00
20156;BME280;10238;49.556;10.956;2023-03-16T03:42:56;98849.00;;;-3.13;100.00
20156;BME280;10238;49.556;10.956;2023-03-16T03:45:44;98860.59;;;-3.21;100.00
20156;BME280;10238;49.556;10.956;2023-03-16T03:48:32;98859.66;;;-3.19;100.00
20156;BME280;10238;49.556;10.956;2023-03-16T03:51:20;98854.47;;;-3.19;100.00
20156;BME280;10238;49.556;10.956;2023-03-16T03:54:09;98846.47;;;-3.14;100.00
20156;BME280;10238;49.556;10.956;2023-03-16T03:56:58;98857.72;;;-3.14;100.00
20156;BME280;10238;49.556;10.956;2023-03-16T03:59:46;98853.97;;;-3.07;100.00
20156;BME280;10238;49.556;10.956;2023-03-16T04:02:33;98850.38;;;-3.03;100.00
20156;BME280;10238;49.556;10.956;2023-03-16T04:05:22;98849.28;;;-2.97;100.00
20156;BME280;10238;49.556;10.956;2023-03-16T04:08:12;98846.63;;;-2.96;100.00
20156;BME280;10238;49.556;10.956;2023-03-16T04:11:00;98844.13;;;-2.99;100.00
20156;BME280;10238;49.556;10.956;2023-03-16T04:13:51;98848.19;;;-2.92;100.00
20156;BME280;10238;49.556;10.956;2023-03-16T04:16:40;98848.06;;;-2.89;100.00
20156;BME280;10238;49.556;10.956;2023-03-16T04:19:30;98839.59;;;-2.94;100.00
20156;BME280;10238;49.556;10.956;2023-03-16T04:22:18;98845.53;;;-2.90;100.00
20156;BME280;10238;49.556;10.956;2023-03-16T04:25:09;98841.31;;;-2.93;100.00
20156;BME280;10238;49.556;10.956;2023-03-16T04:27:57;98840.63;;;-2.98;100.00
20156;BME280;10238;49.556;10.956;2023-03-16T04:30:46;98835.38;;;-2.96;100.00
20156;BME280;10238;49.556;10.956;2023-03-16T04:33:35;98836.22;;;-2.96;100.00
20156;BME280;10238;49.556;10.956;2023-03-16T04:36:23;98831.25;;;-3.02;100.00
20156;BME280;10238;49.556;10.956;2023-03-16T04:39:11;98832.13;;;-3.01;100.00
20156;BME280;10238;49.556;10.956;2023-03-16T04:41:59;98822.53;;;-3.01;100.00
20156;BME280;10238;49.556;10.956;2023-03-16T04:44:48;98820.00;;;-3.02;100.00
20156;BME280;10238;49.556;10.956;2023-03-16T04:47:37;98821.84;;;-3.04;100.00
20156;BME280;10238;49.556;10.956;2023-03-16T04:50:25;98816.75;;;-3.07;100.00
20156;BME280;10238;49.556;10.956;2023-03-16T04:53:13;98823.75;;;-3.09;100.00
20156;BME280;10238;49.556;10.956;2023-03-16T04:56:01;98824.72;;;-3.12;100.00
20156;BME280;10238;49.556;10.956;2023-03-16T04:58:50;98820.53;;;-3.16;100.00
20156;BME280;10238;49.556;10.956;2023-03-16T05:01:37;98814.69;;;-3.21;100.00
20156;BME280;10238;49.556;10.956;2023-03-16T05:04:26;98820.00;;;-3.24;100.00
20156;BME280;10238;49.556;10.956;2023-03-16T05:07:14;98818.31;;;-3.25;100.00
20156;BME280;10238;49.556;10.956;2023-03-16T05:10:03;98819.31;;;-3.29;100.00
20156;BME280;10238;49.556;10.956;2023-03-16T05:12:51;98811.63;;;-3.32;100.00
20156;BME280;10238;49.556;10.956;2023-03-16T05:15:39;98813.53;;;-3.35;100.00
20156;BME280;10238;49.556;10.956;2023-03-16T05:18:27;98805.84;;;-3.38;100.00
20156;BME280;10238;49.556;10.956;2023-03-16T05:21:16;98806.94;;;-3.44;100.00
20156;BME280;10238;49.556;10.956;2023-03-16T05:24:04;98803.53;;;-3.46;100.00
20156;BME280;10238;49.556;10.956;2023-03-16T05:26:52;98799.34;;;-3.50;100.00
20156;BME280;10238;49.556;10.956;2023-03-16T05:29:40;98797.00;;;-3.56;100.00
20156;BME280;10238;49.556;10.956;2023-03-16T05:32:31;98793.59;;;-3.58;100.00
20156;BME280;10238;49.556;10.956;2023-03-16T05:35:19;98795.53;;;-3.63;100.00
20156;BME280;10238;49.556;10.956;2023-03-16T05:38:13;98808.69;;;-3.67;100.00
20156;BME280;10238;49.556;10.956;2023-03-16T05:41:01;98808.81;;;-3.70;100.00
20156;BME280;10238;49.556;10.956;2023-03-16T05:43:51;98811.44;;;-3.72;100.00
20156;BME280;10238;49.556;10.956;2023-03-16T05:46:39;98804.56;;;-3.73;100.00
20156;BME280;10238;49.556;10.956;2023-03-16T05:49:27;98805.50;;;-3.75;100.00
20156;BME280;10238;49.556;10.956;2023-03-16T05:52:15;98807.34;;;-3.77;100.00
20156;BME280;10238;49.556;10.956;2023-03-16T05:55:05;98806.59;;;-3.81;100.00
20156;BME280;10238;49.556;10.956;2023-03-16T05:57:53;98794.53;;;-3.82;100.00
20156;BME280;10238;49.556;10.956;2023-03-16T06:00:42;98798.91;;;-3.84;100.00
20156;BME280;10238;49.556;10.956;2023-03-16T06:03:29;98803.31;;;-3.86;100.00
20156;BME280;10238;49.556;10.956;2023-03-16T06:06:18;98815.50;;;-3.88;100.00
20156;BME280;10238;49.556;10.956;2023-03-16T06:09:06;98817.25;;;-3.88;100.00
20156;BME280;10238;49.556;10.956;2023-03-16T06:11:56;98819.56;;;-3.81;100.00
20156;BME280;10238;49.556;10.956;2023-03-16T06:14:44;98813.69;;;-3.86;100.00
20156;BME280;10238;49.556;10.956;2023-03-16T06:17:33;98810.31;;;-3.88;100.00
20156;BME280;10238;49.556;10.956;2023-03-16T06:20:21;98818.09;;;-3.88;100.00
20156;BME280;10238;49.556;10.956;2023-03-16T06:23:09;98823.31;;;-3.88;100.00
20156;BME280;10238;49.556;10.956;2023-03-16T06:25:57;98829.25;;;-3.86;100.00
20156;BME280;10238;49.556;10.956;2023-03-16T06:28:47;98824.06;;;-3.86;100.00
20156;BME280;10238;49.556;10.956;2023-03-16T06:31:35;98829.25;;;-3.86;100.00
20156;BME280;10238;49.556;10.956;2023-03-16T06:34:23;98824.88;;;-3.84;100.00
20156;BME280;10238;49.556;10.956;2023-03-16T06:37:11;98828.59;;;-3.68;100.00
20156;BME280;10238;49.556;10.956;2023-03-16T06:39:59;98843.31;;;-3.44;100.00
20156;BME280;10238;49.556;10.956;2023-03-16T06:42:47;98835.13;;;-3.12;100.00
20156;BME280;10238;49.556;10.956;2023-03-16T06:45:38;98841.78;;;-3.05;100.00
20156;BME280;10238;49.556;10.956;2023-03-16T06:48:26;98833.06;;;-3.04;100.00
20156;BME280;10238;49.556;10.956;2023-03-16T06:51:14;98825.59;;;-2.90;100.00
20156;BME280;10238;49.556;10.956;2023-03-16T06:54:02;98824.56;;;-2.66;100.00
20156;BME280;10238;49.556;10.956;2023-03-16T06:56:50;98834.25;;;-2.48;100.00
20156;BME280;10238;49.556;10.956;2023-03-16T06:59:38;98837.22;;;-2.37;100.00
20156;BME280;10238;49.556;10.956;2023-03-16T07:02:28;98840.03;;;-2.41;100.00
20156;BME280;10238;49.556;10.956;2023-03-16T07:05:16;98852.72;;;-2.34;100.00
20156;BME280;10238;49.556;10.956;2023-03-16T07:08:04;98852.88;;;-2.16;100.00
20156;BME280;10238;49.556;10.956;2023-03-16T07:10:51;98851.78;;;-2.11;100.00
20156;BME280;10238;49.556;10.956;2023-03-16T07:13:40;98862.75;;;-2.04;100.00
20156;BME280;10238;49.556;10.956;2023-03-16T07:16:28;98869.69;;;-2.03;100.00
20156;BME280;10238;49.556;10.956;2023-03-16T07:19:17;98856.41;;;-1.97;100.00
20156;BME280;10238;49.556;10.956;2023-03-16T07:22:05;98855.84;;;-1.85;100.00
20156;BME280;10238;49.556;10.956;2023-03-16T07:24:53;98847.63;;;-1.76;100.00
20156;BME280;10238;49.556;10.956;2023-03-16T07:27:42;98861.53;;;-1.76;100.00
20156;BME280;10238;49.556;10.956;2023-03-16T07:30:32;98861.34;;;-1.53;100.00
20156;BME280;10238;49.556;10.956;2023-03-16T07:33:20;98858.28;;;-1.42;100.00
20156;BME280;10238;49.556;10.956;2023-03-16T07:36:10;98860.75;;;-1.21;100.00
20156;BME280;10238;49.556;10.956;2023-03-16T07:38:58;98857.78;;;-1.13;100.00
20156;BME280;10238;49.556;10.956;2023-03-16T07:41:47;98860.53;;;-1.16;100.00
20156;BME280;10238;49.556;10.956;2023-03-16T07:44:35;98860.88;;;-1.05;100.00
20156;BME280;10238;49.556;10.956;2023-03-16T07:47:23;98865.53;;;-0.93;100.00
20156;BME280;10238;49.556;10.956;2023-03-16T07:50:12;98860.03;;;-0.87;100.00
20156;BME280;10238;49.556;10.956;2023-03-16T07:53:02;98858.88;;;-0.63;100.00
20156;BME280;10238;49.556;10.956;2023-03-16T07:55:51;98857.66;;;-0.56;100.00
20156;BME280;10238;49.556;10.956;2023-03-16T07:58:39;98856.88;;;-0.58;100.00
20156;BME280;10238;49.556;10.956;2023-03-16T08:01:27;98856.13;;;-0.43;100.00
20156;BME280;10238;49.556;10.956;2023-03-16T08:04:15;98855.69;;;-0.34;100.00
20156;BME280;10238;49.556;10.956;2023-03-16T08:07:03;98857.22;;;-0.30;100.00
20156;BME280;10238;49.556;10.956;2023-03-16T08:09:52;98847.84;;;-0.17;100.00
20156;BME280;10238;49.556;10.956;2023-03-16T08:12:40;98863.28;;;-0.13;100.00
20156;BME280;10238;49.556;10.956;2023-03-16T08:15:28;98845.56;;;-0.06;100.00
20156;BME280;10238;49.556;10.956;2023-03-16T08:18:18;98845.81;;;0.22;100.00
20156;BME280;10238;49.556;10.956;2023-03-16T08:21:07;98849.66;;;0.15;100.00
20156;BME280;10238;49.556;10.956;2023-03-16T08:23:55;98856.25;;;0.39;100.00
20156;BME280;10238;49.556;10.956;2023-03-16T08:26:44;98852.41;;;0.46;100.00
20156;BME280;10238;49.556;10.956;2023-03-16T08:29:32;98848.13;;;0.76;100.00
20156;BME280;10238;49.556;10.956;2023-03-16T08:32:20;98849.84;;;0.93;100.00
20156;BME280;10238;49.556;10.956;2023-03-16T08:35:11;98847.69;;;1.01;100.00
20156;BME280;10238;49.556;10.956;2023-03-16T08:37:59;98840.75;;;1.15;100.00
20156;BME280;10238;49.556;10.956;2023-03-16T08:40:47;98839.06;;;1.30;100.00
20156;BME280;10238;49.556;10.956;2023-03-16T08:43:38;98829.41;;;1.30;100.00
20156;BME280;10238;49.556;10.956;2023-03-16T08:46:27;98832.28;;;1.41;100.00
20156;BME280;10238;49.556;10.956;2023-03-16T08:49:16;98826.53;;;1.50;100.00
20156;BME280;10238;49.556;10.956;2023-03-16T08:52:06;98828.84;;;1.70;100.00
20156;BME280;10238;49.556;10.956;2023-03-16T08:54:56;98829.47;;;1.89;100.00
20156;BME280;10238;49.556;10.956;2023-03-16T08:57:49;98829.66;;;2.00;100.00
20156;BME280;10238;49.556;10.956;2023-03-16T09:00:39;98832.06;;;2.19;100.00
20156;BME280;10238;49.556;10.956;2023-03-16T09:03:31;98830.03;;;2.38;100.00
20156;BME280;10238;49.556;10.956;2023-03-16T09:06:20;98829.28;;;2.64;100.00
20156;BME280;10238;49.556;10.956;2023-03-16T09:09:08;98820.81;;;2.59;100.00
20156;BME280;10238;49.556;10.956;2023-03-16T09:11:56;98818.28;;;2.86;100.00
20156;BME280;10238;49.556;10.956;2023-03-16T09:14:44;98814.50;;;2.90;100.00
20156;BME280;10238;49.556;10.956;2023-03-16T09:17:34;98809.63;;;2.98;100.00
20156;BME280;10238;49.556;10.956;2023-03-16T09:20:21;98804.63;;;3.07;100.00
20156;BME280;10238;49.556;10.956;2023-03-16T09:23:15;98805.81;;;3.30;100.00
20156;BME280;10238;49.556;10.956;2023-03-16T09:26:05;98805.94;;;3.41;100.00
20156;BME280;10238;49.556;10.956;2023-03-16T09:28:52;98801.91;;;3.62;100.00
20156;BME280;10238;49.556;10.956;2023-03-16T09:31:40;98792.38;;;3.73;100.00
20156;BME280;10238;49.556;10.956;2023-03-16T09:34:30;98793.69;;;3.93;100.00
20156;BME280;10238;49.556;10.956;2023-03-16T09:37:18;98789.16;;;3.95;100.00
20156;BME280;10238;49.556;10.956;2023-03-16T09:40:11;98792.34;;;4.50;100.00
20156;BME280;10238;49.556;10.956;2023-03-16T09:46:23;98789.34;;;4.80;100.00
20156;BME280;10238;49.556;10.956;2023-03-16T09:49:14;98790.59;;;4.87;100.00
20156;BME280;10238;49.556;10.956;2023-03-16T09:52:11;98782.44;;;5.02;100.00
20156;BME280;10238;49.556;10.956;2023-03-16T10:01:42;98763.09;;;5.85;100.00
20156;BME280;10238;49.556;10.956;2023-03-16T10:04:55;98748.88;;;5.98;100.00
20156;BME280;10238;49.556;10.956;2023-03-16T10:08:09;98734.00;;;6.08;100.00
20156;BME280;10238;49.556;10.956;2023-03-16T10:11:16;98730.91;;;6.36;100.00
20156;BME280;10238;49.556;10.956;2023-03-16T10:14:11;98731.41;;;6.63;100.00
20156;BME280;10238;49.556;10.956;2023-03-16T10:17:08;98729.69;;;6.85;100.00
20156;BME280;10238;49.556;10.956;2023-03-16T10:20:02;98723.88;;;7.13;100.00
20156;BME280;10238;49.556;10.956;2023-03-16T10:22:55;98711.31;;;7.37;100.00
20156;BME280;10238;49.556;10.956;2023-03-16T10:25:48;98698.22;;;7.35;100.00
20156;BME280;10238;49.556;10.956;2023-03-16T10:28:36;98699.19;;;7.55;100.00
20156;BME280;10238;49.556;10.956;2023-03-16T10:31:26;98690.19;;;7.57;100.00
20156;BME280;10238;49.556;10.956;2023-03-16T10:34:14;98685.84;;;7.97;100.00
20156;BME280;10238;49.556;10.956;2023-03-16T10:37:04;98688.56;;;8.27;100.00
20156;BME280;10238;49.556;10.956;2023-03-16T10:39:54;98685.22;;;8.65;100.00
20156;BME280;10238;49.556;10.956;2023-03-16T10:42:44;98673.50;;;8.67;100.00
20156;BME280;10238;49.556;10.956;2023-03-16T10:45:34;98671.47;;;8.90;100.00
20156;BME280;10238;49.556;10.956;2023-03-16T10:48:23;98662.88;;;9.17;100.00
20156;BME280;10238;49.556;10.956;2023-03-16T10:51:15;98658.41;;;9.27;100.00
20156;BME280;10238;49.556;10.956;2023-03-16T10:54:07;98659.22;;;9.08;100.00
20156;BME280;10238;49.556;10.956;2023-03-16T10:57:00;98667.53;;;8.75;100.00
20156;BME280;10238;49.556;10.956;2023-03-16T10:59:50;98655.31;;;8.93;100.00
20156;BME280;10238;49.556;10.956;2023-03-16T11:02:39;98652.69;;;9.12;100.00
20156;BME280;10238;49.556;10.956;2023-03-16T11:05:30;98654.66;;;10.23;100.00
20156;BME280;10238;49.556;10.956;2023-03-16T11:08:21;98639.69;;;9.47;97.61
20156;BME280;10238;49.556;10.956;2023-03-16T11:11:15;98649.50;;;9.93;100.00
20156;BME280;10238;49.556;10.956;2023-03-16T11:14:11;98652.09;;;9.66;92.69
20156;BME280;10238;49.556;10.956;2023-03-16T11:17:04;98650.69;;;8.95;89.55
20156;BME280;10238;49.556;10.956;2023-03-16T11:19:59;98641.91;;;9.42;94.39
20156;BME280;10238;49.556;10.956;2023-03-16T11:22:54;98640.16;;;9.98;98.87
20156;BME280;10238;49.556;10.956;2023-03-16T11:25:45;98642.31;;;10.31;97.36
20156;BME280;10238;49.556;10.956;2023-03-16T11:28:37;98632.91;;;9.91;91.89
20156;BME280;10238;49.556;10.956;2023-03-16T11:31:38;98635.03;;;9.78;92.78
20156;BME280;10238;49.556;10.956;2023-03-16T11:34:31;98631.63;;;10.04;93.50
20156;BME280;10238;49.556;10.956;2023-03-16T11:37:30;98634.50;;;12.23;100.00
20156;BME280;10238;49.556;10.956;2023-03-16T11:40:31;98613.31;;;12.47;100.00
20156;BME280;10238;49.556;10.956;2023-03-16T11:43:42;98617.34;;;12.59;89.87
20156;BME280;10238;49.556;10.956;2023-03-16T11:46:35;98615.56;;;11.75;79.54
20156;BME280;10238;49.556;10.956;2023-03-16T11:49:47;98621.56;;;13.11;100.00
20156;BME280;10238;49.556;10.956;2023-03-16T11:52:47;98616.38;;;10.70;76.44
20156;BME280;10238;49.556;10.956;2023-03-16T11:55:41;98617.19;;;11.33;84.00
20156;BME280;10238;49.556;10.956;2023-03-16T11:58:42;98619.25;;;12.33;95.96
20156;BME280;10238;49.556;10.956;2023-03-16T12:01:42;98608.94;;;12.38;95.96
20156;BME280;10238;49.556;10.956;2023-03-16T12:04:55;98603.03;;;13.18;83.00
20156;BME280;10238;49.556;10.956;2023-03-16T12:07:54;98591.38;;;13.35;82.40
20156;BME280;10238;49.556;10.956;2023-03-16T12:10:51;98586.53;;;13.38;79.04
20156;BME280;10238;49.556;10.956;2023-03-16T12:13:59;98580.34;;;15.09;99.17
20156;BME280;10238;49.556;10.956;2023-03-16T12:16:55;98573.34;;;15.54;100.00
20156;BME280;10238;49.556;10.956;2023-03-16T12:19:52;98573.84;;;13.48;71.49
20156;BME280;10238;49.556;10.956;2023-03-16T12:22:46;98580.19;;;13.15;71.12
20156;BME280;10238;49.556;10.956;2023-03-16T12:25:39;98585.06;;;14.38;84.59
20156;BME280;10238;49.556;10.956;2023-03-16T12:28:30;98561.56;;;14.87;82.66
20156;BME280;10238;49.556;10.956;2023-03-16T12:31:21;98561.91;;;15.37;78.63
20156;BME280;10238;49.556;10.956;2023-03-16T12:34:18;98557.63;;;15.05;69.30
20156;BME280;10238;49.556;10.956;2023-03-16T12:37:19;98555.44;;;14.78;76.85
20156;BME280;10238;49.556;10.956;2023-03-16T12:40:25;98557.47;;;13.67;66.93
20156;BME280;10238;49.556;10.956;2023-03-16T12:43:30;98551.31;;;13.02;71.21
20156;BME280;10238;49.556;10.956;2023-03-16T12:46:29;98550.22;;;12.79;71.08
20156;BME280;10238;49.556;10.956;2023-03-16T12:49:19;98544.09;;;12.95;67.70
20156;BME280;10238;49.556;10.956;2023-03-16T12:52:10;98529.94;;;12.29;67.13
20156;BME280;10238;49.556;10.956;2023-03-16T12:55:11;98533.09;;;12.82;70.08
20156;BME280;10238;49.556;10.956;2023-03-16T12:58:03;98534.19;;;12.14;71.89
20156;BME280;10238;49.556;10.956;2023-03-16T13:00:57;98538.47;;;11.73;66.81
20156;BME280;10238;49.556;10.956;2023-03-16T13:03:48;98543.38;;;11.86;80.03
20156;BME280;10238;49.556;10.956;2023-03-16T13:06:40;98542.34;;;11.79;67.10
20156;BME280;10238;49.556;10.956;2023-03-16T13:09:29;98539.13;;;12.01;61.55
20156;BME280;10238;49.556;10.956;2023-03-16T13:12:25;98524.13;;;13.47;74.82
20156;BME280;10238;49.556;10.956;2023-03-16T13:15:27;98525.66;;;14.12;74.17
20156;BME280;10238;49.556;10.956;2023-03-16T13:18:23;98521.94;;;13.43;67.19
20156;BME280;10238;49.556;10.956;2023-03-16T13:21:16;98526.03;;;13.93;64.71
20156;BME280;10238;49.556;10.956;2023-03-16T13:24:25;98522.44;;;13.38;79.33
20156;BME280;10238;49.556;10.956;2023-03-16T13:27:20;98530.38;;;12.74;70.05
20156;BME280;10238;49.556;10.956;2023-03-16T13:30:18;98537.19;;;12.11;61.58
20156;BME280;10238;49.556;10.956;2023-03-16T13:33:17;98523.22;;;12.82;69.96
20156;BME280;10238;49.556;10.956;2023-03-16T13:36:06;98523.28;;;12.33;64.38
20156;BME280;10238;49.556;10.956;2023-03-16T13:38:56;98519.31;;;13.02;63.77
20156;BME280;10238;49.556;10.956;2023-03-16T13:41:55;98516.06;;;14.34;73.56
20156;BME280;10238;49.556;10.956;2023-03-16T13:44:45;98528.72;;;13.93;62.63
20156;BME280;10238;49.556;10.956;2023-03-16T13:47:35;98516.63;;;14.05;65.78
20156;BME280;10238;49.556;10.956;2023-03-16T13:50:23;98517.63;;;14.04;63.32
20156;BME280;10238;49.556;10.956;2023-03-16T13:53:15;98516.38;;;12.56;56.98
20156;BME280;10238;49.556;10.956;2023-03-16T13:56:04;98498.16;;;12.35;60.12
20156;BME280;10238;49.556;10.956;2023-03-16T13:58:53;98495.75;;;13.46;73.46
20156;BME280;10238;49.556;10.956;2023-03-16T14:01:44;98489.72;;;12.80;63.29
20156;BME280;10238;49.556;10.956;2023-03-16T14:04:35;98472.66;;;12.49;61.45
20156;BME280;10238;49.556;10.956;2023-03-16T14:07:23;98484.16;;;11.41;64.61
20156;BME280;10238;49.556;10.956;2023-03-16T14:10:13;98481.16;;;12.36;68.76
20156;BME280;10238;49.556;10.956;2023-03-16T14:13:20;98462.53;;;14.03;77.11
20156;BME280;10238;49.556;10.956;2023-03-16T14:16:14;98457.41;;;14.32;64.28
20156;BME280;10238;49.556;10.956;2023-03-16T14:19:05;98470.50;;;14.11;57.71
20156;BME280;10238;49.556;10.956;2023-03-16T14:21:59;98466.50;;;13.61;60.36
20156;BME280;10238;49.556;10.956;2023-03-16T14:24:53;98456.25;;;12.20;57.61
20156;BME280;10238;49.556;10.956;2023-03-16T14:27:44;98459.19;;;12.98;74.72
20156;BME280;10238;49.556;10.956;2023-03-16T14:30:33;98455.38;;;13.96;70.67
20156;BME280;10238;49.556;10.956;2023-03-16T14:33:27;98457.06;;;13.02;62.04
20156;BME280;10238;49.556;10.956;2023-03-16T14:36:18;98446.03;;;12.81;61.20
20156;BME280;10238;49.556;10.956;2023-03-16T14:39:12;98444.91;;;12.99;62.17
20156;BME280;10238;49.556;10.956;2023-03-16T14:42:02;98450.19;;;13.40;68.44
20156;BME280;10238;49.556;10.956;2023-03-16T14:44:52;98445.00;;;12.42;62.62
20156;BME280;10238;49.556;10.956;2023-03-16T14:47:42;98440.44;;;12.18;60.94
20156;BME280;10238;49.556;10.956;2023-03-16T14:50:31;98430.41;;;13.02;67.66
20156;BME280;10238;49.556;10.956;2023-03-16T14:53:19;98428.78;;;13.64;67.72
20156;BME280;10238;49.556;10.956;2023-03-16T14:56:11;98428.69;;;13.25;59.98
20156;BME280;10238;49.556;10.956;2023-03-16T14:59:00;98428.78;;;13.64;70.44
20156;BME280;10238;49.556;10.956;2023-03-16T15:01:49;98424.03;;;12.95;59.49